sensor_id;sensor_type;location;lat;lon;timestamp;temperature;humidity
60027;DHT22;45891;53.006;6.512;2023-08-01T00:00:09;16.00;99.90
60027;DHT22;45891;53.006;6.512;2023-08-01T00:02:37;16.00;99.90
60027;DHT22;45891;53.006;6.512;2023-08-01T00:05:04;16.00;99.90
60027;DHT22;45891;53.006;6.512;2023-08-01T00:07:30;16.00;99.90
60027;DHT22;45891;53.006;6.512;2023-08-01T00:09:56;16.00;99.90
60027;DHT22;45891;53.006;6.512;2023-08-01T00:12:24;16.00;99.90
60027;DHT22;45891;53.006;6.512;2023-08-01T00:14:50;16.00;99.90
60027;DHT22;45891;53.006;6.512;2023-08-01T00:17:16;16.00;99.90
60027;DHT22;45891;53.006;6.512;2023-08-01T00:19:42;16.00;99.90
60027;DHT22;45891;53.006;6.512;2023-08-01T00:22:08;16.00;99.90
60027;DHT22;45891;53.006;6.512;2023-08-01T00:24:35;16.00;99.90
60027;DHT22;45891;53.006;6.512;2023-08-01T00:27:01;16.00;99.90
60027;DHT22;45891;53.006;6.512;2023-08-01T00:29:28;16.00;99.90
60027;DHT22;45891;53.006;6.512;2023-08-01T00:31:54;16.00;99.90
60027;DHT22;45891;53.006;6.512;2023-08-01T00:34:20;15.80;99.90
60027;DHT22;45891;53.006;6.512;2023-08-01T00:36:46;15.40;99.90
60027;DHT22;45891;53.006;6.512;2023-08-01T00:39:12;15.10;99.90
60027;DHT22;45891;53.006;6.512;2023-08-01T00:41:38;15.00;99.90
60027;DHT22;45891;53.006;6.512;2023-08-01T00:44:04;14.90;99.90
60027;DHT22;45891;53.006;6.512;2023-08-01T00:46:31;14.90;99.90
60027;DHT22;45891;53.006;6.512;2023-08-01T00:48:58;14.90;99.90
60027;DHT22;45891;53.006;6.512;2023-08-01T00:51:26;14.90;99.90
60027;DHT22;45891;53.006;6.512;2023-08-01T00:53:53;14.90;99.90
60027;DHT22;45891;53.006;6.512;2023-08-01T00:56:19;14.90;99.90
60027;DHT22;45891;53.006;6.512;2023-08-01T00:58:45;15.00;99.90
60027;DHT22;45891;53.006;6.512;2023-08-01T01:01:12;15.00;99.90
60027;DHT22;45891;53.006;6.512;2023-08-01T01:03:38;15.00;99.90
60027;DHT22;45891;53.006;6.512;2023-08-01T01:06:11;15.00;99.90
60027;DHT22;45891;53.006;6.512;2023-08-01T01:08:38;15.00;99.90
60027;DHT22;45891;53.006;6.512;2023-08-01T01:11:04;15.10;99.90
60027;DHT22;45891;53.006;6.512;2023-08-01T01:13:31;15.10;99.90
60027;DHT22;45891;53.006;6.512;2023-08-01T01:15:57;15.10;99.90
60027;DHT22;45891;53.006;6.512;2023-08-01T01:18:23;15.10;99.90
60027;DHT22;45891;53.006;6.512;2023-08-01T01:20:49;15.10;99.90
60027;DHT22;45891;53.006;6.512;2023-08-01T01:23:15;15.10;99.90
60027;DHT22;45891;53.006;6.512;2023-08-01T01:25:42;15.10;99.90
60027;DHT22;45891;53.006;6.512;2023-08-01T01:28:10;15.10;99.90
60027;DHT22;45891;53.006;6.512;2023-08-01T01:30:37;15.10;99.90
60027;DHT22;45891;53.006;6.512;2023-08-01T01:33:04;15.10;99.90
60027;DHT22;45891;53.006;6.512;2023-08-01T01:35:33;15.10;99.90
60027;DHT22;45891;53.006;6.512;2023-08-01T01:38:00;15.20;99.90
60027;DHT22;45891;53.006;6.512;2023-08-01T01:40:30;15.20;99.90
60027;DHT22;45891;53.006;6.512;2023-08-01T01:42:57;15.20;99.90
60027;DHT22;45891;53.006;6.512;2023-08-01T01:45:23;15.20;99.90
60027;DHT22;45891;53.006;6.512;2023-08-01T01:47:52;15.20;99.90
60027;DHT22;45891;53.006;6.512;2023-08-01T01:50:18;15.20;99.90
60027;DHT22;45891;53.006;6.512;2023-08-01T01:52:45;15.20;99.90
60027;DHT22;45891;53.006;6.512;2023-08-01T01:55:11;15.20;99.90
60027;DHT22;45891;53.006;6.512;2023-08-01T01:57:37;15.20;99.90
60027;DHT22;45891;53.006;6.512;2023-08-01T02:00:04;15.20;99.90
60027;DHT22;45891;53.006;6.512;2023-08-01T02:02:30;15.20;99.90
60027;DHT22;45891;53.006;6.512;2023-08-01T02:04:57;15.20;99.90
60027;DHT22;45891;53.006;6.512;2023-08-01T02:07:23;15.20;99.90
60027;DHT22;45891;53.006;6.512;2023-08-01T02:09:49;15.30;99.90
60027;DHT22;45891;53.006;6.512;2023-08-01T02:12:15;15.20;99.90
60027;DHT22;45891;53.006;6.512;2023-08-01T02:14:41;15.20;99.90
60027;DHT22;45891;53.006;6.512;2023-08-01T02:17:07;15.20;99.90
60027;DHT22;45891;53.006;6.512;2023-08-01T02:19:33;15.20;99.90
60027;DHT22;45891;53.006;6.512;2023-08-01T02:22:00;15.20;99.90
60027;DHT22;45891;53.006;6.512;2023-08-01T02:24:26;15.10;99.90
60027;DHT22;45891;53.006;6.512;2023-08-01T02:26:52;15.10;99.90
60027;DHT22;45891;53.006;6.512;2023-08-01T02:29:18;15.10;99.90
60027;DHT22;45891;53.006;6.512;2023-08-01T02:31:44;15.00;99.90
60027;DHT22;45891;53.006;6.512;2023-08-01T02:34:10;15.00;99.90
60027;DHT22;45891;53.006;6.512;2023-08-01T02:36:36;15.00;99.90
60027;DHT22;45891;53.006;6.512;2023-08-01T02:39:02;15.00;99.90
60027;DHT22;45891;53.006;6.512;2023-08-01T02:41:28;15.00;99.90
60027;DHT22;45891;53.006;6.512;2023-08-01T02:43:54;14.90;99.90
60027;DHT22;45891;53.006;6.512;2023-08-01T02:46:20;14.90;99.90
60027;DHT22;45891;53.006;6.512;2023-08-01T02:48:46;14.90;99.90
60027;DHT22;45891;53.006;6.512;2023-08-01T02:51:12;14.90;99.90
60027;DHT22;45891;53.006;6.512;2023-08-01T02:53:39;14.90;99.90
60027;DHT22;45891;53.006;6.512;2023-08-01T02:56:07;14.90;99.90
60027;DHT22;45891;53.006;6.512;2023-08-01T02:58:36;15.00;99.90
60027;DHT22;45891;53.006;6.512;2023-08-01T03:01:06;15.00;99.90
60027;DHT22;45891;53.006;6.512;2023-08-01T03:03:35;15.00;99.90
60027;DHT22;45891;53.006;6.512;2023-08-01T03:06:02;15.00;99.90
60027;DHT22;45891;53.006;6.512;2023-08-01T03:08:28;15.00;99.90
60027;DHT22;45891;53.006;6.512;2023-08-01T03:10:55;15.00;99.90
60027;DHT22;45891;53.006;6.512;2023-08-01T03:13:21;15.10;99.90
60027;DHT22;45891;53.006;6.512;2023-08-01T03:15:48;15.10;99.90
60027;DHT22;45891;53.006;6.512;2023-08-01T03:18:14;15.10;99.90
60027;DHT22;45891;53.006;6.512;2023-08-01T03:20:40;15.10;99.90
60027;DHT22;45891;53.006;6.512;2023-08-01T03:23:06;15.00;99.90
60027;DHT22;45891;53.006;6.512;2023-08-01T03:25:32;15.00;99.90
60027;DHT22;45891;53.006;6.512;2023-08-01T03:27:59;14.90;99.90
60027;DHT22;45891;53.006;6.512;2023-08-01T03:30:25;14.90;99.90
60027;DHT22;45891;53.006;6.512;2023-08-01T03:32:51;14.90;99.90
60027;DHT22;45891;53.006;6.512;2023-08-01T03:35:17;14.90;99.90
60027;DHT22;45891;53.006;6.512;2023-08-01T03:37:44;14.80;99.90
60027;DHT22;45891;53.006;6.512;2023-08-01T03:40:10;14.80;99.90
60027;DHT22;45891;53.006;6.512;2023-08-01T03:42:39;14.80;99.90
60027;DHT22;45891;53.006;6.512;2023-08-01T03:45:07;14.80;99.90
60027;DHT22;45891;53.006;6.512;2023-08-01T03:47:33;14.80;99.90
60027;DHT22;45891;53.006;6.512;2023-08-01T03:49:59;14.80;99.90
60027;DHT22;45891;53.006;6.512;2023-08-01T03:52:25;14.80;99.90
60027;DHT22;45891;53.006;6.512;2023-08-01T03:54:54;14.70;99.90
60027;DHT22;45891;53.006;6.512;2023-08-01T03:57:21;14.80;99.90
60027;DHT22;45891;53.006;6.512;2023-08-01T03:59:47;14.80;99.90
60027;DHT22;45891;53.006;6.512;2023-08-01T04:02:13;14.70;99.90
60027;DHT22;45891;53.006;6.512;2023-08-01T04:04:39;14.70;99.90
60027;DHT22;45891;53.006;6.512;2023-08-01T04:07:05;14.70;99.90
60027;DHT22;45891;53.006;6.512;2023-08-01T04:09:31;14.70;99.90
60027;DHT22;45891;53.006;6.512;2023-08-01T04:11:57;14.70;99.90
60027;DHT22;45891;53.006;6.512;2023-08-01T04:14:23;14.60;99.90
60027;DHT22;45891;53.006;6.512;2023-08-01T04:16:49;14.60;99.90
60027;DHT22;45891;53.006;6.512;2023-08-01T04:19:16;14.60;99.90
60027;DHT22;45891;53.006;6.512;2023-08-01T04:21:42;14.60;99.90
60027;DHT22;45891;53.006;6.512;2023-08-01T04:24:08;14.70;99.90
60027;DHT22;45891;53.006;6.512;2023-08-01T04:26:34;14.60;99.90
60027;DHT22;45891;53.006;6.512;2023-08-01T04:29:00;14.60;99.90
60027;DHT22;45891;53.006;6.512;2023-08-01T04:31:26;14.60;99.90
60027;DHT22;45891;53.006;6.512;2023-08-01T04:33:52;14.60;99.90
60027;DHT22;45891;53.006;6.512;2023-08-01T04:36:18;14.60;99.90
60027;DHT22;45891;53.006;6.512;2023-08-01T04:38:44;14.50;99.90
60027;DHT22;45891;53.006;6.512;2023-08-01T04:41:10;14.50;99.90
60027;DHT22;45891;53.006;6.512;2023-08-01T04:43:36;14.50;99.90
60027;DHT22;45891;53.006;6.512;2023-08-01T04:46:02;14.50;99.90
60027;DHT22;45891;53.006;6.512;2023-08-01T04:48:28;14.50;99.90
60027;DHT22;45891;53.006;6.512;2023-08-01T04:50:55;14.40;99.90
60027;DHT22;45891;53.006;6.512;2023-08-01T04:53:21;14.40;99.90
60027;DHT22;45891;53.006;6.512;2023-08-01T04:55:47;14.40;99.90
60027;DHT22;45891;53.006;6.512;2023-08-01T04:58:13;14.40;99.90
60027;DHT22;45891;53.006;6.512;2023-08-01T05:00:40;14.40;99.90
60027;DHT22;45891;53.006;6.512;2023-08-01T05:03:07;14.50;99.90
60027;DHT22;45891;53.006;6.512;2023-08-01T05:05:33;14.60;99.90
60027;DHT22;45891;53.006;6.512;2023-08-01T05:07:59;14.60;99.90
60027;DHT22;45891;53.006;6.512;2023-08-01T05:10:25;14.60;99.90
60027;DHT22;45891;53.006;6.512;2023-08-01T05:12:51;14.60;99.90
60027;DHT22;45891;53.006;6.512;2023-08-01T05:15:17;14.60;99.90
60027;DHT22;45891;53.006;6.512;2023-08-01T05:17:43;14.60;99.90
60027;DHT22;45891;53.006;6.512;2023-08-01T05:20:10;14.60;99.90
60027;DHT22;45891;53.006;6.512;2023-08-01T05:22:36;14.70;99.90
60027;DHT22;45891;53.006;6.512;2023-08-01T05:25:02;14.70;99.90
60027;DHT22;45891;53.006;6.512;2023-08-01T05:27:29;14.80;99.90
60027;DHT22;45891;53.006;6.512;2023-08-01T05:29:55;14.90;99.90
60027;DHT22;45891;53.006;6.512;2023-08-01T05:32:21;14.90;99.90
60027;DHT22;45891;53.006;6.512;2023-08-01T05:34:48;15.00;99.90
60027;DHT22;45891;53.006;6.512;2023-08-01T05:37:14;15.10;99.90
60027;DHT22;45891;53.006;6.512;2023-08-01T05:39:40;15.10;99.90
60027;DHT22;45891;53.006;6.512;2023-08-01T05:42:06;15.10;99.90
60027;DHT22;45891;53.006;6.512;2023-08-01T05:44:34;15.10;99.90
60027;DHT22;45891;53.006;6.512;2023-08-01T05:47:01;15.10;99.90
60027;DHT22;45891;53.006;6.512;2023-08-01T05:49:27;15.20;99.90
60027;DHT22;45891;53.006;6.512;2023-08-01T05:51:55;15.20;99.90
60027;DHT22;45891;53.006;6.512;2023-08-01T05:54:21;15.30;99.90
60027;DHT22;45891;53.006;6.512;2023-08-01T05:56:47;15.30;99.90
60027;DHT22;45891;53.006;6.512;2023-08-01T05:59:13;15.30;99.90
60027;DHT22;45891;53.006;6.512;2023-08-01T06:01:40;15.40;99.90
60027;DHT22;45891;53.006;6.512;2023-08-01T06:04:06;15.40;99.90
60027;DHT22;45891;53.006;6.512;2023-08-01T06:06:32;15.40;99.90
60027;DHT22;45891;53.006;6.512;2023-08-01T06:08:58;15.50;99.90
60027;DHT22;45891;53.006;6.512;2023-08-01T06:11:24;15.50;99.90
60027;DHT22;45891;53.006;6.512;2023-08-01T06:13:52;15.40;99.90
60027;DHT22;45891;53.006;6.512;2023-08-01T06:16:18;15.40;99.90
60027;DHT22;45891;53.006;6.512;2023-08-01T06:18:44;15.40;99.90
60027;DHT22;45891;53.006;6.512;2023-08-01T06:21:10;15.40;99.90
60027;DHT22;45891;53.006;6.512;2023-08-01T06:23:36;15.40;99.90
60027;DHT22;45891;53.006;6.512;2023-08-01T06:26:02;15.40;99.90
60027;DHT22;45891;53.006;6.512;2023-08-01T06:28:28;15.40;99.90
60027;DHT22;45891;53.006;6.512;2023-08-01T06:30:54;15.40;99.90
60027;DHT22;45891;53.006;6.512;2023-08-01T06:33:21;15.40;99.90
60027;DHT22;45891;53.006;6.512;2023-08-01T06:35:47;15.50;99.90
60027;DHT22;45891;53.006;6.512;2023-08-01T06:38:13;15.50;99.90
60027;DHT22;45891;53.006;6.512;2023-08-01T06:40:39;15.60;99.90
60027;DHT22;45891;53.006;6.512;2023-08-01T06:43:05;15.50;99.90
60027;DHT22;45891;53.006;6.512;2023-08-01T06:45:31;15.50;99.90
60027;DHT22;45891;53.006;6.512;2023-08-01T06:47:57;15.50;99.90
60027;DHT22;45891;53.006;6.512;2023-08-01T06:50:23;15.60;99.90
60027;DHT22;45891;53.006;6.512;2023-08-01T06:52:49;15.60;99.90
60027;DHT22;45891;53.006;6.512;2023-08-01T06:55:16;15.80;99.90
60027;DHT22;45891;53.006;6.512;2023-08-01T06:57:42;16.00;99.90
60027;DHT22;45891;53.006;6.512;2023-08-01T07:00:08;16.00;99.90
60027;DHT22;45891;53.006;6.512;2023-08-01T07:02:34;16.20;99.90
60027;DHT22;45891;53.006;6.512;2023-08-01T07:05:01;16.20;99.90
60027;DHT22;45891;53.006;6.512;2023-08-01T07:07:27;16.20;99.90
60027;DHT22;45891;53.006;6.512;2023-08-01T07:09:53;16.30;99.90
60027;DHT22;45891;53.006;6.512;2023-08-01T07:12:19;16.30;99.90
60027;DHT22;45891;53.006;6.512;2023-08-01T07:14:45;16.30;99.90
60027;DHT22;45891;53.006;6.512;2023-08-01T07:17:11;16.20;99.90
60027;DHT22;45891;53.006;6.512;2023-08-01T07:19:37;16.20;99.90
60027;DHT22;45891;53.006;6.512;2023-08-01T07:22:03;16.20;99.90
60027;DHT22;45891;53.006;6.512;2023-08-01T07:24:29;16.10;99.90
60027;DHT22;45891;53.006;6.512;2023-08-01T07:26:55;16.10;99.90
60027;DHT22;45891;53.006;6.512;2023-08-01T07:29:21;16.10;99.90
60027;DHT22;45891;53.006;6.512;2023-08-01T07:31:47;16.30;99.90
60027;DHT22;45891;53.006;6.512;2023-08-01T07:34:13;16.30;99.90
60027;DHT22;45891;53.006;6.512;2023-08-01T07:36:40;16.20;99.90
60027;DHT22;45891;53.006;6.512;2023-08-01T07:39:06;16.20;99.90
60027;DHT22;45891;53.006;6.512;2023-08-01T07:41:32;16.10;99.90
60027;DHT22;45891;53.006;6.512;2023-08-01T07:44:01;16.10;99.90
60027;DHT22;45891;53.006;6.512;2023-08-01T07:46:28;16.10;99.90
60027;DHT22;45891;53.006;6.512;2023-08-01T07:48:54;16.10;99.90
60027;DHT22;45891;53.006;6.512;2023-08-01T07:51:20;16.10;99.90
60027;DHT22;45891;53.006;6.512;2023-08-01T07:53:51;16.20;99.90
60027;DHT22;45891;53.006;6.512;2023-08-01T07:56:19;16.30;99.90
60027;DHT22;45891;53.006;6.512;2023-08-01T07:58:45;16.30;99.90
60027;DHT22;45891;53.006;6.512;2023-08-01T08:01:11;16.30;99.90
60027;DHT22;45891;53.006;6.512;2023-08-01T08:03:37;16.30;99.90
60027;DHT22;45891;53.006;6.512;2023-08-01T08:06:03;16.30;99.90
60027;DHT22;45891;53.006;6.512;2023-08-01T08:08:31;16.20;99.90
60027;DHT22;45891;53.006;6.512;2023-08-01T08:10:59;16.10;99.90
60027;DHT22;45891;53.006;6.512;2023-08-01T08:13:27;16.00;99.90
60027;DHT22;45891;53.006;6.512;2023-08-01T08:15:55;16.00;99.90
60027;DHT22;45891;53.006;6.512;2023-08-01T08:18:23;16.00;99.90
60027;DHT22;45891;53.006;6.512;2023-08-01T08:20:49;16.00;99.90
60027;DHT22;45891;53.006;6.512;2023-08-01T08:23:15;15.80;99.90
60027;DHT22;45891;53.006;6.512;2023-08-01T08:25:44;15.80;99.90
60027;DHT22;45891;53.006;6.512;2023-08-01T08:28:13;15.70;99.90
60027;DHT22;45891;53.006;6.512;2023-08-01T08:30:39;15.70;99.90
60027;DHT22;45891;53.006;6.512;2023-08-01T08:33:06;15.70;99.90
60027;DHT22;45891;53.006;6.512;2023-08-01T08:35:33;15.70;99.90
60027;DHT22;45891;53.006;6.512;2023-08-01T08:38:03;15.70;99.90
60027;DHT22;45891;53.006;6.512;2023-08-01T08:40:32;15.70;99.90
60027;DHT22;45891;53.006;6.512;2023-08-01T08:43:02;15.70;99.90
60027;DHT22;45891;53.006;6.512;2023-08-01T08:45:35;15.80;99.90
60027;DHT22;45891;53.006;6.512;2023-08-01T08:48:11;15.90;99.90
60027;DHT22;45891;53.006;6.512;2023-08-01T08:50:38;15.90;99.90
60027;DHT22;45891;53.006;6.512;2023-08-01T08:53:05;15.80;99.90
60027;DHT22;45891;53.006;6.512;2023-08-01T08:55:41;15.90;99.90
60027;DHT22;45891;53.006;6.512;2023-08-01T08:58:08;16.00;99.90
60027;DHT22;45891;53.006;6.512;2023-08-01T09:00:36;16.20;99.90
60027;DHT22;45891;53.006;6.512;2023-08-01T09:03:04;16.30;99.90
60027;DHT22;45891;53.006;6.512;2023-08-01T09:05:48;16.50;99.90
60027;DHT22;45891;53.006;6.512;2023-08-01T09:08:20;16.40;99.90
60027;DHT22;45891;53.006;6.512;2023-08-01T09:10:47;16.30;99.90
60027;DHT22;45891;53.006;6.512;2023-08-01T09:13:14;16.20;99.90
60027;DHT22;45891;53.006;6.512;2023-08-01T09:15:41;16.10;99.90
60027;DHT22;45891;53.006;6.512;2023-08-01T09:18:09;16.10;99.90
60027;DHT22;45891;53.006;6.512;2023-08-01T09:20:56;16.10;99.90
60027;DHT22;45891;53.006;6.512;2023-08-01T09:23:28;16.10;99.90
60027;DHT22;45891;53.006;6.512;2023-08-01T09:25:56;16.10;99.90
60027;DHT22;45891;53.006;6.512;2023-08-01T09:28:23;16.10;99.90
60027;DHT22;45891;53.006;6.512;2023-08-01T09:30:51;16.10;99.90
60027;DHT22;45891;53.006;6.512;2023-08-01T09:33:18;16.10;99.90
60027;DHT22;45891;53.006;6.512;2023-08-01T09:35:44;16.10;99.90
60027;DHT22;45891;53.006;6.512;2023-08-01T09:38:15;16.50;99.90
60027;DHT22;45891;53.006;6.512;2023-08-01T09:40:42;16.60;99.90
60027;DHT22;45891;53.006;6.512;2023-08-01T09:43:13;16.70;99.90
60027;DHT22;45891;53.006;6.512;2023-08-01T09:45:52;16.60;99.90
60027;DHT22;45891;53.006;6.512;2023-08-01T09:48:28;16.50;99.90
60027;DHT22;45891;53.006;6.512;2023-08-01T09:51:24;16.40;99.90
60027;DHT22;45891;53.006;6.512;2023-08-01T09:53:55;16.50;99.90
60027;DHT22;45891;53.006;6.512;2023-08-01T09:56:30;16.90;99.90
60027;DHT22;45891;53.006;6.512;2023-08-01T09:58:59;17.30;99.90
60027;DHT22;45891;53.006;6.512;2023-08-01T10:01:26;18.30;99.90
60027;DHT22;45891;53.006;6.512;2023-08-01T10:03:53;18.10;99.90
60027;DHT22;45891;53.006;6.512;2023-08-01T10:06:24;18.00;99.90
60027;DHT22;45891;53.006;6.512;2023-08-01T10:08:52;17.60;99.90
60027;DHT22;45891;53.006;6.512;2023-08-01T10:11:20;17.40;99.90
60027;DHT22;45891;53.006;6.512;2023-08-01T10:13:46;17.40;99.90
60027;DHT22;45891;53.006;6.512;2023-08-01T10:16:13;17.40;99.90
60027;DHT22;45891;53.006;6.512;2023-08-01T10:18:40;17.50;99.90
60027;DHT22;45891;53.006;6.512;2023-08-01T10:21:10;17.60;99.90
60027;DHT22;45891;53.006;6.512;2023-08-01T10:23:37;17.90;99.90
60027;DHT22;45891;53.006;6.512;2023-08-01T10:26:07;18.20;99.90
60027;DHT22;45891;53.006;6.512;2023-08-01T10:28:39;18.20;99.90
60027;DHT22;45891;53.006;6.512;2023-08-01T10:31:13;17.90;99.90
60027;DHT22;45891;53.006;6.512;2023-08-01T10:33:43;17.80;99.90
60027;DHT22;45891;53.006;6.512;2023-08-01T10:36:28;17.60;99.90
60027;DHT22;45891;53.006;6.512;2023-08-01T10:38:56;17.40;99.90
60027;DHT22;45891;53.006;6.512;2023-08-01T10:41:27;17.40;99.90
60027;DHT22;45891;53.006;6.512;2023-08-01T10:44:14;17.60;99.90
60027;DHT22;45891;53.006;6.512;2023-08-01T10:47:03;18.20;99.90
60027;DHT22;45891;53.006;6.512;2023-08-01T10:49:41;18.20;99.90
60027;DHT22;45891;53.006;6.512;2023-08-01T10:52:24;18.50;99.90
60027;DHT22;45891;53.006;6.512;2023-08-01T10:54:57;18.60;99.90
60027;DHT22;45891;53.006;6.512;2023-08-01T10:57:26;19.00;99.90
60027;DHT22;45891;53.006;6.512;2023-08-01T10:59:53;19.30;99.90
60027;DHT22;45891;53.006;6.512;2023-08-01T11:02:22;19.40;99.90
60027;DHT22;45891;53.006;6.512;2023-08-01T11:05:02;19.10;99.90
60027;DHT22;45891;53.006;6.512;2023-08-01T11:07:29;18.90;99.90
60027;DHT22;45891;53.006;6.512;2023-08-01T11:10:10;18.90;99.90
60027;DHT22;45891;53.006;6.512;2023-08-01T11:12:40;18.80;99.90
60027;DHT22;45891;53.006;6.512;2023-08-01T11:15:08;18.80;99.90
60027;DHT22;45891;53.006;6.512;2023-08-01T11:17:43;18.80;99.90
60027;DHT22;45891;53.006;6.512;2023-08-01T11:20:12;18.60;99.90
60027;DHT22;45891;53.006;6.512;2023-08-01T11:22:50;18.50;99.90
60027;DHT22;45891;53.006;6.512;2023-08-01T11:25:16;18.70;99.90
60027;DHT22;45891;53.006;6.512;2023-08-01T11:27:42;19.20;99.90
60027;DHT22;45891;53.006;6.512;2023-08-01T11:30:09;19.60;99.90
60027;DHT22;45891;53.006;6.512;2023-08-01T11:32:37;20.30;99.90
60027;DHT22;45891;53.006;6.512;2023-08-01T11:35:03;20.30;99.90
60027;DHT22;45891;53.006;6.512;2023-08-01T11:37:30;19.90;99.90
60027;DHT22;45891;53.006;6.512;2023-08-01T11:39:57;19.40;99.90
60027;DHT22;45891;53.006;6.512;2023-08-01T11:42:24;18.90;99.90
60027;DHT22;45891;53.006;6.512;2023-08-01T11:44:50;18.80;99.90
60027;DHT22;45891;53.006;6.512;2023-08-01T11:47:19;18.70;99.90
60027;DHT22;45891;53.006;6.512;2023-08-01T11:49:47;18.80;99.90
60027;DHT22;45891;53.006;6.512;2023-08-01T11:52:26;19.30;99.90
60027;DHT22;45891;53.006;6.512;2023-08-01T11:54:53;19.80;99.90
60027;DHT22;45891;53.006;6.512;2023-08-01T11:57:23;19.80;99.90
60027;DHT22;45891;53.006;6.512;2023-08-01T11:59:55;19.70;99.90
60027;DHT22;45891;53.006;6.512;2023-08-01T12:02:25;19.50;99.90
60027;DHT22;45891;53.006;6.512;2023-08-01T12:04:52;19.80;99.90
60027;DHT22;45891;53.006;6.512;2023-08-01T12:07:19;19.90;99.90
60027;DHT22;45891;53.006;6.512;2023-08-01T12:09:58;20.00;99.90
60027;DHT22;45891;53.006;6.512;2023-08-01T12:12:26;20.20;99.90
60027;DHT22;45891;53.006;6.512;2023-08-01T12:14:53;20.30;99.90
60027;DHT22;45891;53.006;6.512;2023-08-01T12:17:20;20.30;99.90
60027;DHT22;45891;53.006;6.512;2023-08-01T12:19:46;20.30;99.90
60027;DHT22;45891;53.006;6.512;2023-08-01T12:22:13;20.30;99.90
60027;DHT22;45891;53.006;6.512;2023-08-01T12:24:40;20.00;99.90
60027;DHT22;45891;53.006;6.512;2023-08-01T12:27:08;20.40;99.90
60027;DHT22;45891;53.006;6.512;2023-08-01T12:29:34;20.70;99.90
60027;DHT22;45891;53.006;6.512;2023-08-01T12:32:02;20.80;99.90
60027;DHT22;45891;53.006;6.512;2023-08-01T12:34:28;20.50;99.90
60027;DHT22;45891;53.006;6.512;2023-08-01T12:36:54;20.20;99.90
60027;DHT22;45891;53.006;6.512;2023-08-01T12:39:20;19.80;99.90
60027;DHT22;45891;53.006;6.512;2023-08-01T12:41:47;19.50;99.90
60027;DHT22;45891;53.006;6.512;2023-08-01T12:44:13;19.40;99.90
60027;DHT22;45891;53.006;6.512;2023-08-01T12:46:41;19.50;99.90
60027;DHT22;45891;53.006;6.512;2023-08-01T12:49:07;19.70;99.90
60027;DHT22;45891;53.006;6.512;2023-08-01T12:51:34;19.90;99.90
60027;DHT22;45891;53.006;6.512;2023-08-01T12:54:00;20.20;99.90
60027;DHT22;45891;53.006;6.512;2023-08-01T12:56:26;20.60;99.90
60027;DHT22;45891;53.006;6.512;2023-08-01T12:58:52;21.10;99.90
60027;DHT22;45891;53.006;6.512;2023-08-01T13:01:18;21.40;99.90
60027;DHT22;45891;53.006;6.512;2023-08-01T13:03:44;21.20;99.90
60027;DHT22;45891;53.006;6.512;2023-08-01T13:06:11;20.80;99.90
60027;DHT22;45891;53.006;6.512;2023-08-01T13:08:39;20.40;99.90
60027;DHT22;45891;53.006;6.512;2023-08-01T13:11:12;20.20;99.90
60027;DHT22;45891;53.006;6.512;2023-08-01T13:13:40;20.20;99.90
60027;DHT22;45891;53.006;6.512;2023-08-01T13:16:06;20.00;99.90
60027;DHT22;45891;53.006;6.512;2023-08-01T13:18:32;19.90;99.90
60027;DHT22;45891;53.006;6.512;2023-08-01T13:20:58;19.90;99.90
60027;DHT22;45891;53.006;6.512;2023-08-01T13:23:26;20.00;99.90
60027;DHT22;45891;53.006;6.512;2023-08-01T13:25:52;19.90;99.90
60027;DHT22;45891;53.006;6.512;2023-08-01T13:28:18;20.10;99.90
60027;DHT22;45891;53.006;6.512;2023-08-01T13:30:44;20.00;99.90
60027;DHT22;45891;53.006;6.512;2023-08-01T13:33:10;20.00;99.90
60027;DHT22;45891;53.006;6.512;2023-08-01T13:35:36;20.00;99.90
60027;DHT22;45891;53.006;6.512;2023-08-01T13:38:02;19.90;99.90
60027;DHT22;45891;53.006;6.512;2023-08-01T13:40:30;20.40;99.90
60027;DHT22;45891;53.006;6.512;2023-08-01T13:42:56;20.00;99.90
60027;DHT22;45891;53.006;6.512;2023-08-01T13:45:23;19.80;99.90
60027;DHT22;45891;53.006;6.512;2023-08-01T13:47:49;19.50;99.90
60027;DHT22;45891;53.006;6.512;2023-08-01T13:50:15;19.30;99.90
60027;DHT22;45891;53.006;6.512;2023-08-01T13:52:41;19.00;99.90
60027;DHT22;45891;53.006;6.512;2023-08-01T13:55:08;18.10;99.90
60027;DHT22;45891;53.006;6.512;2023-08-01T13:57:35;17.60;99.90
60027;DHT22;45891;53.006;6.512;2023-08-01T14:00:01;17.40;99.90
60027;DHT22;45891;53.006;6.512;2023-08-01T14:02:29;17.50;99.90
60027;DHT22;45891;53.006;6.512;2023-08-01T14:04:56;17.80;99.90
60027;DHT22;45891;53.006;6.512;2023-08-01T14:07:22;18.10;99.90
60027;DHT22;45891;53.006;6.512;2023-08-01T14:09:48;18.20;99.90
60027;DHT22;45891;53.006;6.512;2023-08-01T14:12:14;18.60;99.90
60027;DHT22;45891;53.006;6.512;2023-08-01T14:14:43;18.70;99.90
60027;DHT22;45891;53.006;6.512;2023-08-01T14:17:09;19.40;99.90
60027;DHT22;45891;53.006;6.512;2023-08-01T14:19:35;19.60;99.90
60027;DHT22;45891;53.006;6.512;2023-08-01T14:22:01;20.00;99.90
60027;DHT22;45891;53.006;6.512;2023-08-01T14:24:28;20.40;99.90
60027;DHT22;45891;53.006;6.512;2023-08-01T14:26:54;20.40;99.90
60027;DHT22;45891;53.006;6.512;2023-08-01T14:29:20;20.80;99.90
60027;DHT22;45891;53.006;6.512;2023-08-01T14:31:49;20.80;99.90
60027;DHT22;45891;53.006;6.512;2023-08-01T14:34:15;20.50;99.90
60027;DHT22;45891;53.006;6.512;2023-08-01T14:36:43;20.10;99.90
60027;DHT22;45891;53.006;6.512;2023-08-01T14:39:09;19.90;99.90
60027;DHT22;45891;53.006;6.512;2023-08-01T14:41:35;20.60;99.90
60027;DHT22;45891;53.006;6.512;2023-08-01T14:44:01;20.40;99.90
60027;DHT22;45891;53.006;6.512;2023-08-01T14:46:27;20.20;99.90
60027;DHT22;45891;53.006;6.512;2023-08-01T14:48:53;19.70;99.90
60027;DHT22;45891;53.006;6.512;2023-08-01T14:51:19;19.40;99.90
60027;DHT22;45891;53.006;6.512;2023-08-01T14:53:45;19.20;99.90
60027;DHT22;45891;53.006;6.512;2023-08-01T14:56:11;19.00;99.90
60027;DHT22;45891;53.006;6.512;2023-08-01T14:58:37;18.00;99.90
60027;DHT22;45891;53.006;6.512;2023-08-01T15:01:12;17.40;99.90
60027;DHT22;45891;53.006;6.512;2023-08-01T15:03:38;17.20;99.90
60027;DHT22;45891;53.006;6.512;2023-08-01T15:06:07;17.10;99.90
60027;DHT22;45891;53.006;6.512;2023-08-01T15:08:34;17.00;99.90
60027;DHT22;45891;53.006;6.512;2023-08-01T15:11:04;16.90;99.90
60027;DHT22;45891;53.006;6.512;2023-08-01T15:13:34;16.80;99.90
60027;DHT22;45891;53.006;6.512;2023-08-01T15:16:01;16.50;99.90
60027;DHT22;45891;53.006;6.512;2023-08-01T15:18:28;16.40;99.90
60027;DHT22;45891;53.006;6.512;2023-08-01T15:20:54;16.30;99.90
60027;DHT22;45891;53.006;6.512;2023-08-01T15:23:20;16.40;99.90
60027;DHT22;45891;53.006;6.512;2023-08-01T15:25:57;16.40;99.90
60027;DHT22;45891;53.006;6.512;2023-08-01T15:28:24;16.70;99.90
60027;DHT22;45891;53.006;6.512;2023-08-01T15:31:01;16.90;99.90